createdAt,value
2022-08-18T00:01:49.440Z,18.38
2022-08-18T00:04:48.450Z,17.98
2022-08-18T00:07:53.777Z,18.15
2022-08-18T00:10:23.973Z,17.25
2022-08-18T00:13:04.033Z,17.25
2022-08-18T00:15:42.223Z,17.77
2022-08-18T00:18:26.106Z,17.40
2022-08-18T00:20:55.601Z,17.48
2022-08-18T00:23:32.721Z,19.55
2022-08-18T00:26:01.609Z,20.17
2022-08-18T00:28:31.489Z,24.50
2022-08-18T00:31:00.533Z,23.83
2022-08-18T00:33:54.529Z,18.83
2022-08-18T00:36:31.719Z,17.80
2022-08-18T00:39:50.570Z,17.23
2022-08-18T00:46:45.606Z,19.02
2022-08-18T00:49:20.577Z,17.90
2022-08-18T00:55:34.377Z,18.25
2022-08-18T01:01:54.728Z,18.63
2022-08-18T01:04:54.668Z,19.15
2022-08-18T01:07:33.972Z,18.17
2022-08-18T01:14:38.343Z,19.65
2022-08-18T01:21:17.205Z,20.05
2022-08-18T01:23:50.379Z,19.25
2022-08-18T01:26:21.854Z,19.40
2022-08-18T01:28:51.382Z,18.70
2022-08-18T01:31:38.210Z,20.27
2022-08-18T01:34:23.472Z,18.50
2022-08-18T01:36:55.515Z,22.13
2022-08-18T01:41:23.601Z,19.90
2022-08-18T01:42:25.302Z,19.33
2022-08-18T01:44:53.363Z,19.13
2022-08-18T01:47:22.528Z,19.23
2022-08-18T01:49:53.489Z,20.13
2022-08-18T01:52:23.399Z,19.65
2022-08-18T01:54:58.839Z,19.83
2022-08-18T01:57:27.695Z,19.77
2022-08-18T01:59:56.540Z,20.10
2022-08-18T02:02:29.403Z,19.63
2022-08-18T02:05:03.570Z,20.05
2022-08-18T02:07:37.473Z,19.75
2022-08-18T02:10:12.131Z,19.55
2022-08-18T02:12:47.545Z,19.55
2022-08-18T02:15:18.289Z,21.10
2022-08-18T02:18:09.955Z,20.40
2022-08-18T02:20:46.904Z,20.90
2022-08-18T02:23:53.190Z,20.40
2022-08-18T02:26:25.032Z,20.08
2022-08-18T02:28:53.654Z,19.83
2022-08-18T02:31:32.909Z,19.55
2022-08-18T02:34:01.415Z,23.33
2022-08-18T02:36:30.519Z,21.15
2022-08-18T02:39:00.229Z,19.15
2022-08-18T02:41:31.348Z,18.85
2022-08-18T02:44:04.875Z,19.92
2022-08-18T02:46:33.539Z,19.42
2022-08-18T02:49:09.008Z,19.58
2022-08-18T02:51:38.835Z,20.35
2022-08-18T02:54:12.305Z,19.75
2022-08-18T02:56:46.694Z,19.92
2022-08-18T02:59:20.284Z,19.85
2022-08-18T03:01:56.631Z,25.25
2022-08-18T03:04:32.734Z,19.95
2022-08-18T03:07:03.280Z,18.83
2022-08-18T03:09:36.376Z,22.67
2022-08-18T03:12:11.547Z,18.52
2022-08-18T03:14:41.002Z,20.45
2022-08-18T03:17:10.329Z,19.60
2022-08-18T03:19:38.611Z,19.55
2022-08-18T03:22:27.568Z,19.45
2022-08-18T03:25:01.558Z,20.45
2022-08-18T03:27:33.067Z,19.67
2022-08-18T03:30:03.236Z,19.95
2022-08-18T03:32:31.682Z,19.83
2022-08-18T03:35:00.862Z,20.05
2022-08-18T03:37:28.900Z,19.85
2022-08-18T03:40:00.652Z,19.80
2022-08-18T03:42:29.566Z,19.27
2022-08-18T03:44:58.985Z,19.40
2022-08-18T03:47:28.472Z,20.30
2022-08-18T03:50:00.770Z,24.40
2022-08-18T03:52:29.449Z,20.60
2022-08-18T03:54:57.453Z,24.33
2022-08-18T03:57:25.701Z,20.40
2022-08-18T03:59:54.928Z,20.33
2022-08-18T04:02:25.568Z,21.75
2022-08-18T04:04:53.686Z,20.25
2022-08-18T04:07:21.690Z,19.10
2022-08-18T04:09:53.818Z,22.17
2022-08-18T04:12:22.500Z,19.40
2022-08-18T04:14:53.614Z,19.27
2022-08-18T04:17:25.318Z,19.83
2022-08-18T04:19:53.901Z,20.98
2022-08-18T04:22:22.692Z,19.20
2022-08-18T04:24:51.132Z,19.02
2022-08-18T04:27:21.581Z,24.42
2022-08-18T04:29:49.955Z,19.85
2022-08-18T04:32:19.425Z,19.88
2022-08-18T04:34:48.976Z,19.05
2022-08-18T04:37:17.599Z,18.40
2022-08-18T04:39:48.658Z,18.67
2022-08-18T04:42:17.567Z,19.20
2022-08-18T04:44:45.768Z,18.65
2022-08-18T04:47:17.618Z,17.48
2022-08-18T04:49:46.234Z,17.55
2022-08-18T04:52:40.710Z,23.95
2022-08-18T04:55:13.596Z,17.75
2022-08-18T04:57:42.640Z,25.48
2022-08-18T05:00:13.812Z,20.85
2022-08-18T05:02:42.468Z,20.10
2022-08-18T05:05:11.605Z,18.08
2022-08-18T05:07:47.908Z,18.25
2022-08-18T05:10:18.590Z,29.38
2022-08-18T05:12:48.962Z,22.67
2022-08-18T05:15:18.858Z,22.67
2022-08-18T05:17:47.639Z,24.13
2022-08-18T05:20:20.920Z,25.90
2022-08-18T05:22:51.588Z,25.58
2022-08-18T05:25:23.851Z,20.20
2022-08-18T05:27:52.735Z,21.70
2022-08-18T05:30:21.224Z,22.45
2022-08-18T05:32:51.680Z,33.80
2022-08-18T05:35:26.348Z,29.02
2022-08-18T05:38:14.545Z,34.50
2022-08-18T05:40:47.698Z,29.40
2022-08-18T05:43:18.162Z,26.83
2022-08-18T05:45:49.665Z,27.08
2022-08-18T05:48:18.664Z,27.20
2022-08-18T05:50:47.628Z,29.33
2022-08-18T05:53:20.732Z,32.38
2022-08-18T05:56:16.244Z,26.15
2022-08-18T05:58:48.687Z,27.10
2022-08-18T06:01:22.628Z,26.77
2022-08-18T06:03:55.676Z,23.10
2022-08-18T06:06:29.666Z,23.75
2022-08-18T06:09:07.536Z,25.17
2022-08-18T06:11:37.444Z,24.67
2022-08-18T06:14:06.054Z,31.00
2022-08-18T06:16:47.665Z,27.90
2022-08-18T06:19:34.560Z,25.85
2022-08-18T06:22:15.604Z,26.70
2022-08-18T06:24:54.623Z,27.90
2022-08-18T06:27:32.569Z,25.75
2022-08-18T06:30:10.927Z,24.10
2022-08-18T06:32:56.829Z,23.13
2022-08-18T06:35:34.863Z,21.60
2022-08-18T06:38:33.139Z,26.23
2022-08-18T06:41:40.982Z,19.38
2022-08-18T06:44:03.783Z,24.73
2022-08-18T06:46:42.590Z,27.40
2022-08-18T06:49:13.703Z,22.15
2022-08-18T06:51:42.439Z,23.55
2022-08-18T06:54:29.438Z,25.00
2022-08-18T06:56:59.962Z,20.05
2022-08-18T06:59:36.537Z,25.77
2022-08-18T07:02:20.582Z,22.60
2022-08-18T07:05:09.090Z,15.93
2022-08-18T07:07:40.565Z,19.67
2022-08-18T07:10:31.754Z,17.10
2022-08-18T07:13:25.649Z,15.77
2022-08-18T07:15:55.750Z,13.77
2022-08-18T07:18:28.600Z,18.95
2022-08-18T07:21:00.687Z,16.60
2022-08-18T07:23:34.994Z,20.80
2022-08-18T07:26:10.449Z,16.45
2022-08-18T07:28:44.334Z,14.20
2022-08-18T07:31:21.607Z,15.00
2022-08-18T07:33:57.633Z,17.55
2022-08-18T07:36:33.569Z,15.75
2022-08-18T07:39:08.743Z,15.90
2022-08-18T07:41:53.732Z,13.32
2022-08-18T07:44:28.619Z,11.82
2022-08-18T07:47:01.153Z,11.48
2022-08-18T07:49:36.157Z,13.38
2022-08-18T07:52:14.617Z,19.48
2022-08-18T07:55:06.773Z,12.88
2022-08-18T07:57:48.920Z,23.13
2022-08-18T08:00:41.145Z,13.95
2022-08-18T08:03:26.742Z,13.32
2022-08-18T08:06:04.320Z,12.25
2022-08-18T08:08:38.675Z,10.48
2022-08-18T08:11:18.038Z,14.13
2022-08-18T08:13:59.178Z,25.63
2022-08-18T08:16:40.699Z,12.95
2022-08-18T08:19:58.502Z,10.20
2022-08-18T08:22:25.657Z,13.23
2022-08-18T08:25:02.749Z,10.77
2022-08-18T08:27:54.155Z,9.98
2022-08-18T08:30:26.764Z,15.13
2022-08-18T08:33:12.846Z,14.43
2022-08-18T08:35:50.411Z,14.55
2022-08-18T08:38:42.802Z,16.13
2022-08-18T08:41:16.855Z,18.52
2022-08-18T08:43:49.500Z,11.38
2022-08-18T08:46:23.669Z,13.80
2022-08-18T08:49:00.838Z,12.30
2022-08-18T08:51:38.746Z,30.83
2022-08-18T08:54:18.103Z,28.63
2022-08-18T08:56:48.767Z,16.45
2022-08-18T08:59:21.792Z,14.82
2022-08-18T09:02:00.753Z,15.15
2022-08-18T09:04:54.194Z,27.75
2022-08-18T09:07:49.750Z,23.67
2022-08-18T09:10:49.870Z,16.00
2022-08-18T09:13:42.695Z,13.43
2022-08-18T09:16:22.747Z,13.02
2022-08-18T09:19:15.961Z,9.13
2022-08-18T09:21:51.946Z,12.27
2022-08-18T09:24:31.162Z,11.65
2022-08-18T09:27:18.997Z,18.90
2022-08-18T09:29:57.502Z,11.95
2022-08-18T09:32:44.593Z,11.10
2022-08-18T09:35:46.794Z,14.90
2022-08-18T09:38:45.425Z,14.23
2022-08-18T09:41:35.360Z,9.52
2022-08-18T09:44:21.708Z,9.82
2022-08-18T09:47:00.819Z,13.40
2022-08-18T09:49:53.143Z,12.60
2022-08-18T09:52:49.839Z,7.82
2022-08-18T09:55:59.285Z,8.50
2022-08-18T09:58:54.934Z,8.32
2022-08-18T10:01:40.730Z,11.43
2022-08-18T10:04:33.831Z,8.70
2022-08-18T10:07:43.475Z,9.55
2022-08-18T10:11:00.922Z,11.57
2022-08-18T10:13:21.558Z,12.48
2022-08-18T10:16:12.802Z,12.73
2022-08-18T10:18:57.713Z,12.25
2022-08-18T10:21:31.296Z,11.05
2022-08-18T10:24:36.202Z,7.75
2022-08-18T10:30:02.313Z,8.93
2022-08-18T10:32:52.175Z,6.75
2022-08-18T10:35:53.837Z,11.43
2022-08-18T10:38:39.915Z,19.85
2022-08-18T10:41:23.767Z,11.82
2022-08-18T10:43:55.838Z,8.63
2022-08-18T10:46:32.967Z,9.13
2022-08-18T10:49:21.448Z,10.02
2022-08-18T10:52:21.232Z,9.73
2022-08-18T10:55:10.970Z,29.25
2022-08-18T10:58:03.891Z,9.15
2022-08-18T11:00:44.858Z,6.63
2022-08-18T11:03:52.313Z,7.57
2022-08-18T11:06:21.483Z,8.65
2022-08-18T11:11:52.822Z,6.72
2022-08-18T11:14:41.961Z,10.27
2022-08-18T11:17:18.925Z,9.68
2022-08-18T11:19:50.905Z,11.63
2022-08-18T11:22:32.037Z,9.52
2022-08-18T11:25:03.865Z,9.75
2022-08-18T11:27:36.332Z,6.53
2022-08-18T11:30:07.044Z,7.55
2022-08-18T11:33:03.299Z,10.38
2022-08-18T11:35:38.207Z,6.10
2022-08-18T11:38:20.927Z,8.38
2022-08-18T11:41:13.618Z,6.03
2022-08-18T11:43:47.406Z,6.07
2022-08-18T11:46:29.695Z,5.35
2022-08-18T11:49:01.911Z,14.50
2022-08-18T11:51:34.601Z,10.57
2022-08-18T11:54:23.478Z,8.05
2022-08-18T11:56:54.967Z,10.65
2022-08-18T12:02:28.089Z,9.65
2022-08-18T12:05:10.276Z,8.48
2022-08-18T12:10:33.970Z,9.43
2022-08-18T12:13:02.971Z,13.45
2022-08-18T12:15:43.801Z,8.10
2022-08-18T12:18:28.560Z,7.25
2022-08-18T12:20:58.809Z,7.05
2022-08-18T12:23:39.163Z,11.63
2022-08-18T12:29:11.110Z,6.85
2022-08-18T12:34:29.508Z,5.95
2022-08-18T12:37:01.823Z,6.38
2022-08-18T12:39:32.424Z,6.28
2022-08-18T12:42:04.880Z,8.77
2022-08-18T12:44:35.460Z,6.88
2022-08-18T12:47:09.295Z,10.52
2022-08-18T12:49:39.336Z,8.38
2022-08-18T12:52:08.959Z,9.02
2022-08-18T12:54:55.188Z,12.88
2022-08-18T12:57:51.787Z,6.63
2022-08-18T13:00:27.846Z,6.28
2022-08-18T13:02:57.412Z,6.78
2022-08-18T13:05:27.514Z,8.90
2022-08-18T13:07:58.094Z,9.13
2022-08-18T13:10:42.969Z,5.50
2022-08-18T13:13:22.006Z,6.85
2022-08-18T13:15:58.246Z,6.47
2022-08-18T13:18:31.150Z,5.68
2022-08-18T13:20:59.866Z,8.10
2022-08-18T13:23:29.129Z,7.47
2022-08-18T13:26:02.136Z,6.07
2022-08-18T13:28:36.182Z,6.57
2022-08-18T13:31:23.986Z,9.48
2022-08-18T13:33:59.397Z,7.95
2022-08-18T13:36:44.415Z,5.53
2022-08-18T13:39:16.982Z,6.63
2022-08-18T13:41:46.295Z,16.33
2022-08-18T13:44:19.934Z,8.23
2022-08-18T13:46:50.035Z,6.75
2022-08-18T13:49:29.032Z,5.93
2022-08-18T13:52:05.574Z,5.82
2022-08-18T13:54:41.081Z,8.65
2022-08-18T13:57:11.308Z,18.15
2022-08-18T13:59:46.719Z,8.30
2022-08-18T14:02:18.136Z,9.30
2022-08-18T14:04:48.288Z,9.15
2022-08-18T14:07:27.278Z,6.90
2022-08-18T14:09:56.840Z,6.07
2022-08-18T14:12:30.986Z,11.45
2022-08-18T14:15:02.995Z,6.55
2022-08-18T14:17:32.007Z,7.68
2022-08-18T14:20:21.708Z,7.50
2022-08-18T14:23:11.857Z,6.93
2022-08-18T14:25:59.672Z,5.47
2022-08-18T14:28:29.069Z,10.00
2022-08-18T14:31:00.905Z,5.72
2022-08-18T14:33:49.824Z,6.53
2022-08-18T14:36:19.423Z,7.50
2022-08-18T14:38:51.454Z,7.57
2022-08-18T14:41:25.670Z,7.45
2022-08-18T14:44:12.254Z,4.75
2022-08-18T14:46:47.486Z,6.93
2022-08-18T14:49:28.698Z,7.63
2022-08-18T14:51:58.440Z,4.72
2022-08-18T14:54:28.602Z,4.75
2022-08-18T14:57:03.085Z,8.60
2022-08-18T14:59:37.847Z,6.38
2022-08-18T15:02:13.542Z,6.88
2022-08-18T15:04:53.232Z,5.50
2022-08-18T15:07:25.054Z,6.35
2022-08-18T15:10:14.913Z,7.20
2022-08-18T15:12:42.746Z,6.07
2022-08-18T15:15:18.255Z,5.45
2022-08-18T15:17:52.796Z,6.47
2022-08-18T15:20:28.793Z,5.75
2022-08-18T15:23:24.731Z,5.75
2022-08-18T15:25:58.945Z,9.25
2022-08-18T15:28:28.060Z,6.20
2022-08-18T15:33:51.114Z,12.57
2022-08-18T15:36:28.944Z,6.63
2022-08-18T15:38:58.054Z,5.90
2022-08-18T15:41:33.089Z,5.63
2022-08-18T15:44:04.165Z,7.40
2022-08-18T15:46:38.181Z,9.32
2022-08-18T15:49:15.095Z,6.53
2022-08-18T15:51:47.637Z,5.20
2022-08-18T15:54:19.570Z,6.25
2022-08-18T15:56:57.755Z,7.63
2022-08-18T15:59:33.190Z,5.80
2022-08-18T16:02:07.304Z,6.82
2022-08-18T16:04:44.880Z,7.90
2022-08-18T16:07:13.955Z,6.15
2022-08-18T16:09:42.240Z,6.35
2022-08-18T16:12:11.168Z,7.65
2022-08-18T16:14:40.194Z,8.30
2022-08-18T16:17:09.434Z,5.97
2022-08-18T16:19:47.609Z,5.60
2022-08-18T16:22:17.385Z,24.48
2022-08-18T16:24:46.173Z,19.10
2022-08-18T16:27:24.103Z,11.77
2022-08-18T16:29:56.895Z,8.68
2022-08-18T16:32:26.005Z,7.78
2022-08-18T16:34:56.103Z,5.82
2022-08-18T16:37:24.734Z,9.02
2022-08-18T16:39:53.186Z,5.95
2022-08-18T16:42:22.980Z,6.20
2022-08-18T16:44:51.998Z,9.82
2022-08-18T16:47:21.084Z,8.45
2022-08-18T16:49:51.300Z,6.43
2022-08-18T16:52:21.494Z,11.65
2022-08-18T16:54:57.625Z,9.68
2022-08-18T16:57:53.293Z,9.93
2022-08-18T17:00:40.840Z,6.75
2022-08-18T17:03:27.408Z,7.00
2022-08-18T17:06:01.099Z,8.45
2022-08-18T17:08:34.256Z,9.18
2022-08-18T17:11:02.706Z,11.30
2022-08-18T17:13:31.492Z,9.15
2022-08-18T17:16:00.996Z,7.00
2022-08-18T17:18:29.761Z,9.55
2022-08-18T17:20:58.042Z,7.35
2022-08-18T17:23:30.117Z,8.35
2022-08-18T17:25:59.258Z,8.35
2022-08-18T17:28:39.608Z,8.50
2022-08-18T17:31:14.242Z,7.43
2022-08-18T17:33:47.101Z,8.85
2022-08-18T17:36:22.195Z,7.47
2022-08-18T17:39:00.028Z,7.47
2022-08-18T17:41:30.046Z,8.65
2022-08-18T17:44:04.272Z,9.20
2022-08-18T17:46:42.997Z,9.02
2022-08-18T17:49:16.156Z,11.48
2022-08-18T17:51:55.200Z,12.23
2022-08-18T17:54:32.397Z,9.70
2022-08-18T17:57:05.586Z,13.18
2022-08-18T17:59:51.164Z,14.10
2022-08-18T18:02:29.535Z,12.68
2022-08-18T18:05:02.515Z,14.18
2022-08-18T18:07:33.882Z,13.30
2022-08-18T18:10:06.167Z,13.82
2022-08-18T18:12:39.245Z,9.52
2022-08-18T18:15:11.865Z,9.55
2022-08-18T18:17:42.061Z,12.82
2022-08-18T18:20:17.170Z,9.52
2022-08-18T18:22:50.359Z,12.10
2022-08-18T18:25:35.490Z,15.00
2022-08-18T18:28:04.652Z,9.63
2022-08-18T18:30:33.524Z,11.77
2022-08-18T18:33:08.199Z,15.48
2022-08-18T18:35:54.803Z,17.35
2022-08-18T18:38:30.196Z,10.93
2022-08-18T18:41:03.283Z,13.15
2022-08-18T18:43:36.978Z,14.73
2022-08-18T18:46:23.304Z,12.15
2022-08-18T18:49:03.227Z,14.82
2022-08-18T18:51:38.295Z,11.55
2022-08-18T18:54:15.785Z,11.73
2022-08-18T18:56:52.084Z,16.65
2022-08-18T18:59:38.461Z,23.20
2022-08-18T19:02:33.887Z,42.85
2022-08-18T19:05:14.532Z,23.92
2022-08-18T19:07:59.086Z,14.77
2022-08-18T19:10:34.890Z,16.70
2022-08-18T19:13:32.852Z,14.05
2022-08-18T19:16:23.452Z,14.00
2022-08-18T19:18:57.948Z,11.55
2022-08-18T19:22:03.755Z,11.50
2022-08-18T19:24:39.714Z,14.77
2022-08-18T19:27:14.259Z,16.70
2022-08-18T19:29:46.033Z,18.63
2022-08-18T19:32:19.742Z,14.40
2022-08-18T19:34:51.330Z,16.77
2022-08-18T19:37:31.235Z,19.85
2022-08-18T19:40:09.476Z,19.23
2022-08-18T19:42:49.950Z,13.10
2022-08-18T19:45:31.029Z,83.05
2022-08-18T19:48:06.634Z,32.42
2022-08-18T19:50:38.109Z,21.77
2022-08-18T19:53:26.760Z,11.02
2022-08-18T19:56:15.981Z,11.15
2022-08-18T19:59:18.417Z,15.90
2022-08-18T20:02:09.230Z,14.90
2022-08-18T20:04:51.346Z,14.00
2022-08-18T20:07:55.940Z,12.63
2022-08-18T20:10:42.194Z,11.63
2022-08-18T20:13:26.310Z,11.60
2022-08-18T20:16:14.336Z,13.88
2022-08-18T20:18:49.430Z,15.75
2022-08-18T20:21:45.368Z,31.92
2022-08-18T20:24:46.626Z,36.40
2022-08-18T20:27:22.835Z,20.05
2022-08-18T20:30:19.343Z,25.92
2022-08-18T20:33:19.357Z,15.93
2022-08-18T20:36:07.277Z,20.42
2022-08-18T20:38:38.293Z,20.38
2022-08-18T20:41:45.366Z,15.05
2022-08-18T20:44:57.268Z,13.93
2022-08-18T20:48:04.314Z,15.00
2022-08-18T20:50:48.497Z,15.48
2022-08-18T20:53:37.305Z,11.77
2022-08-18T20:56:32.112Z,14.85
2022-08-18T20:59:09.117Z,13.02
2022-08-18T21:01:39.022Z,10.98
2022-08-18T21:04:11.652Z,13.77
2022-08-18T21:06:44.682Z,11.50
2022-08-18T21:09:18.920Z,14.13
2022-08-18T21:11:49.320Z,12.45
2022-08-18T21:14:28.722Z,14.85
2022-08-18T21:16:59.836Z,31.02
2022-08-18T21:19:30.354Z,19.48
2022-08-18T21:22:04.212Z,13.35
2022-08-18T21:24:37.350Z,12.55
2022-08-18T21:27:08.324Z,12.30
2022-08-18T21:29:47.412Z,11.98
2022-08-18T21:32:21.374Z,14.75
2022-08-18T21:34:50.841Z,11.73
2022-08-18T21:37:20.404Z,21.25
2022-08-18T21:39:55.794Z,40.00
2022-08-18T21:42:28.325Z,42.80
2022-08-18T21:45:02.417Z,22.17
2022-08-18T21:47:34.324Z,14.57
2022-08-18T21:50:13.535Z,24.98
2022-08-18T21:52:53.495Z,13.48
2022-08-18T21:55:30.267Z,16.05
2022-08-18T21:58:05.357Z,58.45
2022-08-18T22:00:36.102Z,37.55
2022-08-18T22:03:24.485Z,17.02
2022-08-18T22:06:03.417Z,14.52
2022-08-18T22:08:35.235Z,11.60
2022-08-18T22:12:00.717Z,11.27
2022-08-18T22:14:53.740Z,11.05
2022-08-18T22:17:31.400Z,10.95
2022-08-18T22:20:34.650Z,10.70
2022-08-18T22:23:29.350Z,13.85
2022-08-18T22:26:08.338Z,14.85
2022-08-18T22:28:44.355Z,13.13
2022-08-18T22:31:20.576Z,14.95
2022-08-18T22:33:50.260Z,10.35
2022-08-18T22:36:23.360Z,13.25
2022-08-18T22:38:52.502Z,46.95
2022-08-18T22:41:22.396Z,39.63
2022-08-18T22:44:16.053Z,15.07
2022-08-18T22:46:44.270Z,13.82
2022-08-18T22:49:13.155Z,15.68
2022-08-18T22:51:41.208Z,88.97
2022-08-18T22:54:14.816Z,43.97
2022-08-18T22:56:53.974Z,21.08
2022-08-18T22:59:28.390Z,12.90
2022-08-18T23:01:58.207Z,13.82
2022-08-18T23:04:29.369Z,14.55
2022-08-18T23:06:57.538Z,12.30
2022-08-18T23:09:29.698Z,11.85
2022-08-18T23:12:04.617Z,11.65
2022-08-18T23:14:35.150Z,16.02
2022-08-18T23:17:05.539Z,14.57
2022-08-18T23:19:37.351Z,20.23
2022-08-18T23:22:06.400Z,11.13
2022-08-18T23:24:35.387Z,12.65
2022-08-18T23:27:05.595Z,14.35
2022-08-18T23:29:41.320Z,10.45
2022-08-18T23:32:10.411Z,12.52
2022-08-18T23:34:38.414Z,11.00
2022-08-18T23:37:09.649Z,12.48
2022-08-18T23:39:41.852Z,14.05
2022-08-18T23:42:13.410Z,12.32
2022-08-18T23:44:46.583Z,12.48
2022-08-18T23:47:16.669Z,16.35
2022-08-18T23:49:45.481Z,11.50
2022-08-18T23:52:13.447Z,14.88
2022-08-18T23:54:42.409Z,11.32
2022-08-18T23:57:14.274Z,10.70
2022-08-18T23:59:44.342Z,11.75
